sensor_id;sensor_type;location;lat;lon;timestamp;P1;durP1;ratioP1;P2;durP2;ratioP2
49241;SDS011;35079;52.704;13.814;2023-09-08T00:01:11;11.45;;;7.75;;
49241;SDS011;35079;52.704;13.814;2023-09-08T00:03:50;12.98;;;8.20;;
49241;SDS011;35079;52.704;13.814;2023-09-08T00:09:29;12.80;;;8.77;;
49241;SDS011;35079;52.704;13.814;2023-09-08T00:12:10;14.18;;;8.70;;
49241;SDS011;35079;52.704;13.814;2023-09-08T00:17:56;13.43;;;8.23;;
49241;SDS011;35079;52.704;13.814;2023-09-08T00:20:22;10.25;;;7.82;;
49241;SDS011;35079;52.704;13.814;2023-09-08T00:22:48;11.93;;;8.63;;
49241;SDS011;35079;52.704;13.814;2023-09-08T00:25:13;10.23;;;8.32;;
49241;SDS011;35079;52.704;13.814;2023-09-08T00:30:49;14.60;;;8.45;;
49241;SDS011;35079;52.704;13.814;2023-09-08T00:37:11;13.52;;;9.15;;
49241;SDS011;35079;52.704;13.814;2023-09-08T01:03:16;16.08;;;9.55;;
49241;SDS011;35079;52.704;13.814;2023-09-08T01:09:36;13.27;;;9.82;;
49241;SDS011;35079;52.704;13.814;2023-09-08T01:25:56;12.82;;;9.05;;
49241;SDS011;35079;52.704;13.814;2023-09-08T01:42:19;14.15;;;9.55;;
49241;SDS011;35079;52.704;13.814;2023-09-08T01:45:47;12.35;;;10.60;;
49241;SDS011;35079;52.704;13.814;2023-09-08T01:49:09;12.63;;;10.07;;
49241;SDS011;35079;52.704;13.814;2023-09-08T01:52:06;14.10;;;10.32;;
49241;SDS011;35079;52.704;13.814;2023-09-08T01:55:09;13.65;;;10.60;;
49241;SDS011;35079;52.704;13.814;2023-09-08T01:57:55;13.95;;;10.57;;
49241;SDS011;35079;52.704;13.814;2023-09-08T02:00:58;15.93;;;10.43;;
49241;SDS011;35079;52.704;13.814;2023-09-08T02:03:50;17.45;;;11.20;;
49241;SDS011;35079;52.704;13.814;2023-09-08T02:06:16;13.98;;;10.52;;
49241;SDS011;35079;52.704;13.814;2023-09-08T02:09:29;12.48;;;10.30;;
49241;SDS011;35079;52.704;13.814;2023-09-08T02:12:17;14.32;;;11.25;;
49241;SDS011;35079;52.704;13.814;2023-09-08T02:15:10;14.27;;;10.98;;
49241;SDS011;35079;52.704;13.814;2023-09-08T02:20:33;14.20;;;10.98;;
49241;SDS011;35079;52.704;13.814;2023-09-08T02:25:58;18.15;;;11.50;;
49241;SDS011;35079;52.704;13.814;2023-09-08T02:28:57;16.30;;;11.43;;
49241;SDS011;35079;52.704;13.814;2023-09-08T02:31:19;15.38;;;11.18;;
49241;SDS011;35079;52.704;13.814;2023-09-08T02:33:45;15.02;;;11.57;;
49241;SDS011;35079;52.704;13.814;2023-09-08T02:36:18;16.83;;;11.60;;
49241;SDS011;35079;52.704;13.814;2023-09-08T02:38:53;20.33;;;11.23;;
49241;SDS011;35079;52.704;13.814;2023-09-08T02:41:42;17.15;;;12.02;;
49241;SDS011;35079;52.704;13.814;2023-09-08T02:44:26;14.68;;;10.93;;
49241;SDS011;35079;52.704;13.814;2023-09-08T02:46:58;17.30;;;10.73;;
49241;SDS011;35079;52.704;13.814;2023-09-08T02:49:24;13.80;;;11.18;;
49241;SDS011;35079;52.704;13.814;2023-09-08T02:51:58;14.35;;;12.18;;
49241;SDS011;35079;52.704;13.814;2023-09-08T02:54:24;16.98;;;11.23;;
49241;SDS011;35079;52.704;13.814;2023-09-08T02:56:50;17.02;;;11.55;;
49241;SDS011;35079;52.704;13.814;2023-09-08T02:59:15;14.15;;;11.27;;
49241;SDS011;35079;52.704;13.814;2023-09-08T03:01:42;14.63;;;11.68;;
49241;SDS011;35079;52.704;13.814;2023-09-08T03:04:07;14.05;;;11.05;;
49241;SDS011;35079;52.704;13.814;2023-09-08T03:06:34;15.48;;;11.52;;
49241;SDS011;35079;52.704;13.814;2023-09-08T03:09:00;16.33;;;12.02;;
49241;SDS011;35079;52.704;13.814;2023-09-08T03:11:28;15.27;;;11.75;;
49241;SDS011;35079;52.704;13.814;2023-09-08T03:13:54;16.38;;;11.73;;
49241;SDS011;35079;52.704;13.814;2023-09-08T03:16:20;14.13;;;11.73;;
49241;SDS011;35079;52.704;13.814;2023-09-08T03:18:46;16.33;;;11.68;;
49241;SDS011;35079;52.704;13.814;2023-09-08T03:21:13;16.10;;;11.65;;
49241;SDS011;35079;52.704;13.814;2023-09-08T03:23:40;14.25;;;11.60;;
49241;SDS011;35079;52.704;13.814;2023-09-08T03:26:07;17.60;;;12.10;;
49241;SDS011;35079;52.704;13.814;2023-09-08T03:28:33;16.58;;;12.15;;
49241;SDS011;35079;52.704;13.814;2023-09-08T03:31:03;17.67;;;12.27;;
49241;SDS011;35079;52.704;13.814;2023-09-08T03:33:29;14.65;;;11.95;;
49241;SDS011;35079;52.704;13.814;2023-09-08T03:35:55;17.30;;;12.63;;
49241;SDS011;35079;52.704;13.814;2023-09-08T03:38:21;16.90;;;11.60;;
49241;SDS011;35079;52.704;13.814;2023-09-08T03:40:46;16.10;;;12.40;;
49241;SDS011;35079;52.704;13.814;2023-09-08T03:43:12;17.05;;;12.02;;
49241;SDS011;35079;52.704;13.814;2023-09-08T03:45:38;15.35;;;11.65;;
49241;SDS011;35079;52.704;13.814;2023-09-08T03:48:03;16.70;;;12.00;;
49241;SDS011;35079;52.704;13.814;2023-09-08T03:50:29;15.10;;;11.45;;
49241;SDS011;35079;52.704;13.814;2023-09-08T03:52:55;14.55;;;11.57;;
49241;SDS011;35079;52.704;13.814;2023-09-08T03:55:21;14.88;;;11.90;;
49241;SDS011;35079;52.704;13.814;2023-09-08T03:57:47;14.93;;;11.85;;
49241;SDS011;35079;52.704;13.814;2023-09-08T04:00:13;13.32;;;11.65;;
49241;SDS011;35079;52.704;13.814;2023-09-08T04:02:46;17.27;;;12.53;;
49241;SDS011;35079;52.704;13.814;2023-09-08T04:05:12;14.70;;;12.02;;
49241;SDS011;35079;52.704;13.814;2023-09-08T04:07:38;18.13;;;12.48;;
49241;SDS011;35079;52.704;13.814;2023-09-08T04:10:03;16.85;;;12.55;;
49241;SDS011;35079;52.704;13.814;2023-09-08T04:12:29;15.93;;;12.38;;
49241;SDS011;35079;52.704;13.814;2023-09-08T04:14:55;18.98;;;13.15;;
49241;SDS011;35079;52.704;13.814;2023-09-08T04:17:21;15.60;;;12.43;;
49241;SDS011;35079;52.704;13.814;2023-09-08T04:19:46;15.95;;;12.32;;
49241;SDS011;35079;52.704;13.814;2023-09-08T04:22:12;13.93;;;12.27;;
49241;SDS011;35079;52.704;13.814;2023-09-08T04:24:37;16.60;;;11.82;;
49241;SDS011;35079;52.704;13.814;2023-09-08T04:27:03;17.25;;;12.85;;
49241;SDS011;35079;52.704;13.814;2023-09-08T04:29:29;19.15;;;12.82;;
49241;SDS011;35079;52.704;13.814;2023-09-08T04:31:55;17.52;;;13.25;;
49241;SDS011;35079;52.704;13.814;2023-09-08T04:34:20;17.65;;;13.43;;
49241;SDS011;35079;52.704;13.814;2023-09-08T04:36:46;20.30;;;13.45;;
49241;SDS011;35079;52.704;13.814;2023-09-08T04:39:12;17.85;;;13.32;;
49241;SDS011;35079;52.704;13.814;2023-09-08T04:41:38;17.25;;;12.98;;
49241;SDS011;35079;52.704;13.814;2023-09-08T04:44:04;19.20;;;13.13;;
49241;SDS011;35079;52.704;13.814;2023-09-08T04:46:30;15.40;;;13.05;;
49241;SDS011;35079;52.704;13.814;2023-09-08T04:48:56;20.52;;;13.98;;
49241;SDS011;35079;52.704;13.814;2023-09-08T04:51:21;18.73;;;13.45;;
49241;SDS011;35079;52.704;13.814;2023-09-08T04:53:47;19.55;;;13.40;;
49241;SDS011;35079;52.704;13.814;2023-09-08T04:56:13;19.05;;;14.23;;
49241;SDS011;35079;52.704;13.814;2023-09-08T04:58:39;18.58;;;13.75;;
49241;SDS011;35079;52.704;13.814;2023-09-08T05:01:04;19.15;;;12.80;;
49241;SDS011;35079;52.704;13.814;2023-09-08T05:03:30;19.50;;;13.20;;
49241;SDS011;35079;52.704;13.814;2023-09-08T05:05:56;18.70;;;13.43;;
49241;SDS011;35079;52.704;13.814;2023-09-08T05:08:22;20.52;;;12.45;;
49241;SDS011;35079;52.704;13.814;2023-09-08T05:10:47;16.13;;;12.88;;
49241;SDS011;35079;52.704;13.814;2023-09-08T05:13:13;15.10;;;12.55;;
49241;SDS011;35079;52.704;13.814;2023-09-08T05:15:40;17.40;;;12.30;;
49241;SDS011;35079;52.704;13.814;2023-09-08T05:18:07;17.83;;;13.45;;
49241;SDS011;35079;52.704;13.814;2023-09-08T05:20:33;17.92;;;12.15;;
49241;SDS011;35079;52.704;13.814;2023-09-08T05:22:58;14.68;;;12.18;;
49241;SDS011;35079;52.704;13.814;2023-09-08T05:25:24;17.25;;;12.23;;
49241;SDS011;35079;52.704;13.814;2023-09-08T05:27:50;16.08;;;11.77;;
49241;SDS011;35079;52.704;13.814;2023-09-08T05:30:18;19.52;;;12.20;;
49241;SDS011;35079;52.704;13.814;2023-09-08T05:32:44;14.88;;;11.88;;
49241;SDS011;35079;52.704;13.814;2023-09-08T05:35:31;15.13;;;11.30;;
49241;SDS011;35079;52.704;13.814;2023-09-08T05:51:28;18.10;;;10.57;;
49241;SDS011;35079;52.704;13.814;2023-09-08T06:00:52;13.70;;;10.27;;
49241;SDS011;35079;52.704;13.814;2023-09-08T06:03:18;13.25;;;10.00;;
49241;SDS011;35079;52.704;13.814;2023-09-08T06:05:44;17.05;;;10.20;;
49241;SDS011;35079;52.704;13.814;2023-09-08T06:08:10;15.43;;;10.32;;
49241;SDS011;35079;52.704;13.814;2023-09-08T06:10:35;11.73;;;9.40;;
49241;SDS011;35079;52.704;13.814;2023-09-08T06:13:02;15.75;;;9.73;;
49241;SDS011;35079;52.704;13.814;2023-09-08T06:15:28;10.15;;;8.60;;
49241;SDS011;35079;52.704;13.814;2023-09-08T06:17:53;12.48;;;9.38;;
49241;SDS011;35079;52.704;13.814;2023-09-08T06:20:19;13.05;;;9.23;;
49241;SDS011;35079;52.704;13.814;2023-09-08T06:22:45;11.82;;;9.15;;
49241;SDS011;35079;52.704;13.814;2023-09-08T06:25:10;12.20;;;8.35;;
49241;SDS011;35079;52.704;13.814;2023-09-08T06:27:36;12.82;;;8.65;;
49241;SDS011;35079;52.704;13.814;2023-09-08T06:30:02;10.20;;;8.30;;
49241;SDS011;35079;52.704;13.814;2023-09-08T06:32:28;10.80;;;8.52;;
49241;SDS011;35079;52.704;13.814;2023-09-08T06:34:53;11.48;;;8.80;;
49241;SDS011;35079;52.704;13.814;2023-09-08T06:37:19;12.40;;;8.13;;
49241;SDS011;35079;52.704;13.814;2023-09-08T06:39:45;13.35;;;8.82;;
49241;SDS011;35079;52.704;13.814;2023-09-08T06:42:10;10.63;;;7.75;;
49241;SDS011;35079;52.704;13.814;2023-09-08T06:44:36;13.13;;;8.30;;
49241;SDS011;35079;52.704;13.814;2023-09-08T06:47:02;10.95;;;8.57;;
49241;SDS011;35079;52.704;13.814;2023-09-08T06:49:28;12.50;;;7.75;;
49241;SDS011;35079;52.704;13.814;2023-09-08T06:51:54;10.27;;;7.78;;
49241;SDS011;35079;52.704;13.814;2023-09-08T06:54:19;14.48;;;7.90;;
49241;SDS011;35079;52.704;13.814;2023-09-08T06:56:45;9.10;;;7.57;;
49241;SDS011;35079;52.704;13.814;2023-09-08T06:59:10;9.70;;;7.53;;
49241;SDS011;35079;52.704;13.814;2023-09-08T07:01:36;9.35;;;7.65;;
49241;SDS011;35079;52.704;13.814;2023-09-08T07:04:02;11.02;;;7.47;;
49241;SDS011;35079;52.704;13.814;2023-09-08T07:06:27;9.50;;;6.78;;
49241;SDS011;35079;52.704;13.814;2023-09-08T07:08:53;9.93;;;7.07;;
49241;SDS011;35079;52.704;13.814;2023-09-08T07:11:18;9.00;;;6.75;;
49241;SDS011;35079;52.704;13.814;2023-09-08T07:13:44;9.90;;;6.88;;
49241;SDS011;35079;52.704;13.814;2023-09-08T07:16:10;10.43;;;7.30;;
49241;SDS011;35079;52.704;13.814;2023-09-08T07:18:35;9.82;;;6.80;;
49241;SDS011;35079;52.704;13.814;2023-09-08T07:21:02;8.52;;;6.70;;
49241;SDS011;35079;52.704;13.814;2023-09-08T07:23:28;9.20;;;6.40;;
49241;SDS011;35079;52.704;13.814;2023-09-08T07:25:54;11.60;;;6.88;;
49241;SDS011;35079;52.704;13.814;2023-09-08T07:28:19;9.60;;;6.78;;
49241;SDS011;35079;52.704;13.814;2023-09-08T07:30:45;8.07;;;6.10;;
49241;SDS011;35079;52.704;13.814;2023-09-08T07:33:11;9.32;;;6.30;;
49241;SDS011;35079;52.704;13.814;2023-09-08T07:35:37;11.07;;;5.90;;
49241;SDS011;35079;52.704;13.814;2023-09-08T07:38:03;9.98;;;5.80;;
49241;SDS011;35079;52.704;13.814;2023-09-08T07:40:29;7.90;;;5.50;;
49241;SDS011;35079;52.704;13.814;2023-09-08T07:42:56;9.20;;;6.13;;
49241;SDS011;35079;52.704;13.814;2023-09-08T07:45:21;6.50;;;5.78;;
49241;SDS011;35079;52.704;13.814;2023-09-08T07:47:48;12.45;;;5.28;;
49241;SDS011;35079;52.704;13.814;2023-09-08T07:50:20;11.55;;;5.78;;
49241;SDS011;35079;52.704;13.814;2023-09-08T07:55:14;9.07;;;5.45;;
49241;SDS011;35079;52.704;13.814;2023-09-08T07:57:44;10.50;;;5.40;;
49241;SDS011;35079;52.704;13.814;2023-09-08T08:00:13;8.82;;;5.45;;
49241;SDS011;35079;52.704;13.814;2023-09-08T08:02:41;7.70;;;5.00;;
49241;SDS011;35079;52.704;13.814;2023-09-08T08:05:11;9.05;;;5.18;;
49241;SDS011;35079;52.704;13.814;2023-09-08T08:07:37;8.68;;;5.13;;
49241;SDS011;35079;52.704;13.814;2023-09-08T08:10:04;9.23;;;5.45;;
49241;SDS011;35079;52.704;13.814;2023-09-08T08:12:30;6.93;;;5.15;;
49241;SDS011;35079;52.704;13.814;2023-09-08T08:14:56;7.07;;;5.10;;
49241;SDS011;35079;52.704;13.814;2023-09-08T08:17:22;9.02;;;4.95;;
49241;SDS011;35079;52.704;13.814;2023-09-08T08:19:49;7.47;;;5.28;;
49241;SDS011;35079;52.704;13.814;2023-09-08T08:22:14;7.22;;;5.03;;
49241;SDS011;35079;52.704;13.814;2023-09-08T08:24:40;10.38;;;5.10;;
49241;SDS011;35079;52.704;13.814;2023-09-08T08:27:06;7.50;;;4.93;;
49241;SDS011;35079;52.704;13.814;2023-09-08T08:29:33;6.03;;;4.55;;
49241;SDS011;35079;52.704;13.814;2023-09-08T08:31:58;8.95;;;5.70;;
49241;SDS011;35079;52.704;13.814;2023-09-08T08:34:25;7.30;;;4.88;;
49241;SDS011;35079;52.704;13.814;2023-09-08T08:36:50;5.45;;;4.70;;
49241;SDS011;35079;52.704;13.814;2023-09-08T08:39:16;11.65;;;5.55;;
49241;SDS011;35079;52.704;13.814;2023-09-08T08:41:45;8.23;;;5.22;;
49241;SDS011;35079;52.704;13.814;2023-09-08T08:44:11;8.80;;;5.47;;
49241;SDS011;35079;52.704;13.814;2023-09-08T08:46:38;7.55;;;5.05;;
49241;SDS011;35079;52.704;13.814;2023-09-08T08:49:06;7.03;;;5.07;;
49241;SDS011;35079;52.704;13.814;2023-09-08T08:51:33;6.63;;;5.45;;
49241;SDS011;35079;52.704;13.814;2023-09-08T08:54:00;14.95;;;6.03;;
49241;SDS011;35079;52.704;13.814;2023-09-08T08:56:30;8.88;;;5.38;;
49241;SDS011;35079;52.704;13.814;2023-09-08T08:59:01;8.98;;;6.00;;
49241;SDS011;35079;52.704;13.814;2023-09-08T09:01:27;9.70;;;5.88;;
49241;SDS011;35079;52.704;13.814;2023-09-08T09:03:54;7.72;;;5.13;;
49241;SDS011;35079;52.704;13.814;2023-09-08T09:06:21;10.57;;;5.40;;
49241;SDS011;35079;52.704;13.814;2023-09-08T09:08:47;8.73;;;5.90;;
49241;SDS011;35079;52.704;13.814;2023-09-08T09:11:13;8.18;;;6.00;;
49241;SDS011;35079;52.704;13.814;2023-09-08T09:13:39;7.50;;;5.60;;
49241;SDS011;35079;52.704;13.814;2023-09-08T09:16:11;8.32;;;5.45;;
49241;SDS011;35079;52.704;13.814;2023-09-08T09:19:18;9.23;;;5.47;;
49241;SDS011;35079;52.704;13.814;2023-09-08T09:21:51;14.25;;;5.88;;
49241;SDS011;35079;52.704;13.814;2023-09-08T09:26:57;16.58;;;6.47;;
49241;SDS011;35079;52.704;13.814;2023-09-08T09:29:24;10.40;;;5.40;;
49241;SDS011;35079;52.704;13.814;2023-09-08T09:31:51;8.30;;;5.43;;
49241;SDS011;35079;52.704;13.814;2023-09-08T09:34:18;9.27;;;5.60;;
49241;SDS011;35079;52.704;13.814;2023-09-08T09:36:45;9.15;;;5.57;;
49241;SDS011;35079;52.704;13.814;2023-09-08T09:39:15;8.07;;;5.07;;
49241;SDS011;35079;52.704;13.814;2023-09-08T09:41:43;7.45;;;4.97;;
49241;SDS011;35079;52.704;13.814;2023-09-08T09:44:09;7.53;;;5.40;;
49241;SDS011;35079;52.704;13.814;2023-09-08T09:46:36;5.53;;;4.68;;
49241;SDS011;35079;52.704;13.814;2023-09-08T09:49:02;5.68;;;4.97;;
49241;SDS011;35079;52.704;13.814;2023-09-08T09:51:27;7.63;;;5.32;;
49241;SDS011;35079;52.704;13.814;2023-09-08T09:53:54;5.63;;;4.72;;
49241;SDS011;35079;52.704;13.814;2023-09-08T09:56:20;7.75;;;4.57;;
49241;SDS011;35079;52.704;13.814;2023-09-08T09:58:48;7.07;;;4.75;;
49241;SDS011;35079;52.704;13.814;2023-09-08T10:01:14;6.55;;;4.75;;
49241;SDS011;35079;52.704;13.814;2023-09-08T10:03:41;15.07;;;5.50;;
49241;SDS011;35079;52.704;13.814;2023-09-08T10:06:07;11.02;;;5.50;;
49241;SDS011;35079;52.704;13.814;2023-09-08T10:08:35;7.10;;;5.03;;
49241;SDS011;35079;52.704;13.814;2023-09-08T10:11:05;6.78;;;5.07;;
49241;SDS011;35079;52.704;13.814;2023-09-08T10:13:38;7.55;;;5.10;;
49241;SDS011;35079;52.704;13.814;2023-09-08T10:16:06;5.90;;;4.65;;
49241;SDS011;35079;52.704;13.814;2023-09-08T10:18:34;7.80;;;4.93;;
49241;SDS011;35079;52.704;13.814;2023-09-08T10:21:02;7.38;;;4.43;;
49241;SDS011;35079;52.704;13.814;2023-09-08T10:23:44;15.48;;;5.03;;
49241;SDS011;35079;52.704;13.814;2023-09-08T10:26:18;7.97;;;4.38;;
49241;SDS011;35079;52.704;13.814;2023-09-08T10:28:46;5.53;;;4.40;;
49241;SDS011;35079;52.704;13.814;2023-09-08T10:31:13;6.80;;;4.80;;
49241;SDS011;35079;52.704;13.814;2023-09-08T10:33:39;7.45;;;5.03;;
49241;SDS011;35079;52.704;13.814;2023-09-08T10:36:07;6.20;;;4.70;;
49241;SDS011;35079;52.704;13.814;2023-09-08T10:38:34;10.80;;;4.95;;
49241;SDS011;35079;52.704;13.814;2023-09-08T10:43:57;7.68;;;4.88;;
49241;SDS011;35079;52.704;13.814;2023-09-08T10:46:28;7.32;;;4.88;;
49241;SDS011;35079;52.704;13.814;2023-09-08T10:49:00;5.32;;;4.25;;
49241;SDS011;35079;52.704;13.814;2023-09-08T10:51:28;6.73;;;4.80;;
49241;SDS011;35079;52.704;13.814;2023-09-08T10:53:54;6.82;;;5.18;;
49241;SDS011;35079;52.704;13.814;2023-09-08T10:56:19;9.05;;;5.18;;
49241;SDS011;35079;52.704;13.814;2023-09-08T10:58:49;5.50;;;4.90;;
49241;SDS011;35079;52.704;13.814;2023-09-08T11:01:17;6.78;;;4.80;;
49241;SDS011;35079;52.704;13.814;2023-09-08T11:03:47;5.53;;;4.95;;
49241;SDS011;35079;52.704;13.814;2023-09-08T11:06:33;7.38;;;4.68;;
49241;SDS011;35079;52.704;13.814;2023-09-08T11:09:07;8.77;;;5.38;;
49241;SDS011;35079;52.704;13.814;2023-09-08T11:12:05;5.20;;;4.55;;
49241;SDS011;35079;52.704;13.814;2023-09-08T11:14:33;7.03;;;4.70;;
49241;SDS011;35079;52.704;13.814;2023-09-08T11:17:02;7.70;;;4.95;;
49241;SDS011;35079;52.704;13.814;2023-09-08T11:19:42;7.22;;;4.90;;
49241;SDS011;35079;52.704;13.814;2023-09-08T11:22:09;6.35;;;5.32;;
49241;SDS011;35079;52.704;13.814;2023-09-08T11:24:35;8.52;;;4.90;;
49241;SDS011;35079;52.704;13.814;2023-09-08T11:27:01;5.18;;;4.03;;
49241;SDS011;35079;52.704;13.814;2023-09-08T11:29:27;5.47;;;4.25;;
49241;SDS011;35079;52.704;13.814;2023-09-08T11:32:53;10.70;;;4.50;;
49241;SDS011;35079;52.704;13.814;2023-09-08T11:34:49;19.33;;;4.93;;
49241;SDS011;35079;52.704;13.814;2023-09-08T11:37:16;6.97;;;4.30;;
49241;SDS011;35079;52.704;13.814;2023-09-08T11:39:44;5.13;;;4.07;;
49241;SDS011;35079;52.704;13.814;2023-09-08T11:42:14;4.55;;;4.13;;
49241;SDS011;35079;52.704;13.814;2023-09-08T11:44:40;7.68;;;4.32;;
49241;SDS011;35079;52.704;13.814;2023-09-08T11:47:07;6.25;;;4.45;;
49241;SDS011;35079;52.704;13.814;2023-09-08T11:49:37;6.28;;;4.60;;
49241;SDS011;35079;52.704;13.814;2023-09-08T11:52:04;6.72;;;4.30;;
49241;SDS011;35079;52.704;13.814;2023-09-08T11:54:31;4.95;;;4.53;;
49241;SDS011;35079;52.704;13.814;2023-09-08T11:57:02;6.07;;;4.20;;
49241;SDS011;35079;52.704;13.814;2023-09-08T11:59:33;7.60;;;4.45;;
49241;SDS011;35079;52.704;13.814;2023-09-08T12:01:59;5.30;;;4.20;;
49241;SDS011;35079;52.704;13.814;2023-09-08T12:04:25;12.10;;;4.40;;
49241;SDS011;35079;52.704;13.814;2023-09-08T12:06:51;5.47;;;4.30;;
49241;SDS011;35079;52.704;13.814;2023-09-08T12:09:20;5.93;;;4.30;;
49241;SDS011;35079;52.704;13.814;2023-09-08T12:11:46;5.43;;;4.20;;
49241;SDS011;35079;52.704;13.814;2023-09-08T12:14:14;6.20;;;5.05;;
49241;SDS011;35079;52.704;13.814;2023-09-08T12:16:41;4.47;;;4.07;;
49241;SDS011;35079;52.704;13.814;2023-09-08T12:19:07;5.32;;;4.00;;
49241;SDS011;35079;52.704;13.814;2023-09-08T12:21:56;5.15;;;3.97;;
49241;SDS011;35079;52.704;13.814;2023-09-08T12:27:18;7.17;;;4.47;;
49241;SDS011;35079;52.704;13.814;2023-09-08T12:29:54;6.60;;;4.40;;
49241;SDS011;35079;52.704;13.814;2023-09-08T12:32:25;6.40;;;4.53;;
49241;SDS011;35079;52.704;13.814;2023-09-08T12:34:53;5.55;;;4.75;;
49241;SDS011;35079;52.704;13.814;2023-09-08T12:37:21;5.97;;;4.60;;
49241;SDS011;35079;52.704;13.814;2023-09-08T12:39:47;9.32;;;4.53;;
49241;SDS011;35079;52.704;13.814;2023-09-08T12:42:13;5.78;;;4.72;;
49241;SDS011;35079;52.704;13.814;2023-09-08T12:51:24;7.03;;;4.38;;
49241;SDS011;35079;52.704;13.814;2023-09-08T12:54:18;5.25;;;4.47;;
49241;SDS011;35079;52.704;13.814;2023-09-08T12:56:44;5.65;;;4.30;;
49241;SDS011;35079;52.704;13.814;2023-09-08T12:59:09;8.60;;;4.95;;
49241;SDS011;35079;52.704;13.814;2023-09-08T13:01:38;8.85;;;5.00;;
49241;SDS011;35079;52.704;13.814;2023-09-08T13:04:04;10.82;;;5.18;;
49241;SDS011;35079;52.704;13.814;2023-09-08T13:06:30;9.15;;;4.95;;
49241;SDS011;35079;52.704;13.814;2023-09-08T13:08:57;7.88;;;4.75;;
49241;SDS011;35079;52.704;13.814;2023-09-08T13:11:24;6.13;;;4.85;;
49241;SDS011;35079;52.704;13.814;2023-09-08T13:13:49;7.13;;;4.85;;
49241;SDS011;35079;52.704;13.814;2023-09-08T13:16:15;6.63;;;5.63;;
49241;SDS011;35079;52.704;13.814;2023-09-08T13:18:41;7.93;;;5.00;;
49241;SDS011;35079;52.704;13.814;2023-09-08T13:21:07;5.65;;;5.00;;
49241;SDS011;35079;52.704;13.814;2023-09-08T13:23:32;5.32;;;4.80;;
49241;SDS011;35079;52.704;13.814;2023-09-08T13:25:58;7.13;;;4.93;;
49241;SDS011;35079;52.704;13.814;2023-09-08T13:28:23;6.70;;;4.78;;
49241;SDS011;35079;52.704;13.814;2023-09-08T13:30:49;5.80;;;4.70;;
49241;SDS011;35079;52.704;13.814;2023-09-08T13:33:15;6.63;;;4.88;;
49241;SDS011;35079;52.704;13.814;2023-09-08T13:35:40;6.72;;;4.60;;
49241;SDS011;35079;52.704;13.814;2023-09-08T13:44:31;8.32;;;5.80;;
49241;SDS011;35079;52.704;13.814;2023-09-08T13:46:58;7.88;;;5.30;;
49241;SDS011;35079;52.704;13.814;2023-09-08T13:49:57;7.70;;;5.35;;
49241;SDS011;35079;52.704;13.814;2023-09-08T13:52:23;8.13;;;5.50;;
49241;SDS011;35079;52.704;13.814;2023-09-08T13:54:49;6.97;;;4.90;;
49241;SDS011;35079;52.704;13.814;2023-09-08T13:57:15;6.43;;;5.50;;
49241;SDS011;35079;52.704;13.814;2023-09-08T13:59:41;6.65;;;5.03;;
49241;SDS011;35079;52.704;13.814;2023-09-08T14:02:07;7.38;;;4.90;;
49241;SDS011;35079;52.704;13.814;2023-09-08T14:04:32;6.80;;;5.00;;
49241;SDS011;35079;52.704;13.814;2023-09-08T14:06:58;5.28;;;4.78;;
49241;SDS011;35079;52.704;13.814;2023-09-08T14:09:24;7.65;;;5.30;;
49241;SDS011;35079;52.704;13.814;2023-09-08T14:11:51;8.35;;;5.22;;
49241;SDS011;35079;52.704;13.814;2023-09-08T14:14:16;5.55;;;4.95;;
49241;SDS011;35079;52.704;13.814;2023-09-08T14:16:42;7.82;;;5.00;;
49241;SDS011;35079;52.704;13.814;2023-09-08T14:19:08;7.25;;;5.38;;
49241;SDS011;35079;52.704;13.814;2023-09-08T14:21:34;8.70;;;6.05;;
49241;SDS011;35079;52.704;13.814;2023-09-08T14:24:01;8.32;;;5.38;;
49241;SDS011;35079;52.704;13.814;2023-09-08T14:26:27;6.60;;;5.50;;
49241;SDS011;35079;52.704;13.814;2023-09-08T14:28:52;8.35;;;5.82;;
49241;SDS011;35079;52.704;13.814;2023-09-08T14:31:18;5.97;;;5.20;;
49241;SDS011;35079;52.704;13.814;2023-09-08T14:33:44;9.70;;;5.75;;
49241;SDS011;35079;52.704;13.814;2023-09-08T14:36:10;8.93;;;5.80;;
49241;SDS011;35079;52.704;13.814;2023-09-08T14:38:35;6.03;;;5.43;;
49241;SDS011;35079;52.704;13.814;2023-09-08T14:41:01;22.60;;;6.10;;
49241;SDS011;35079;52.704;13.814;2023-09-08T14:43:28;7.28;;;5.28;;
49241;SDS011;35079;52.704;13.814;2023-09-08T14:45:54;8.20;;;5.90;;
49241;SDS011;35079;52.704;13.814;2023-09-08T14:48:22;6.35;;;5.53;;
49241;SDS011;35079;52.704;13.814;2023-09-08T14:50:48;10.00;;;5.22;;
49241;SDS011;35079;52.704;13.814;2023-09-08T14:53:13;11.63;;;5.70;;
49241;SDS011;35079;52.704;13.814;2023-09-08T14:55:39;12.15;;;6.07;;
49241;SDS011;35079;52.704;13.814;2023-09-08T14:58:05;9.90;;;5.60;;
49241;SDS011;35079;52.704;13.814;2023-09-08T15:00:31;8.50;;;5.72;;
49241;SDS011;35079;52.704;13.814;2023-09-08T15:02:57;7.32;;;5.13;;
49241;SDS011;35079;52.704;13.814;2023-09-08T15:05:23;8.27;;;5.55;;
49241;SDS011;35079;52.704;13.814;2023-09-08T15:07:49;9.38;;;5.43;;
49241;SDS011;35079;52.704;13.814;2023-09-08T15:10:15;7.63;;;5.25;;
49241;SDS011;35079;52.704;13.814;2023-09-08T15:12:40;12.15;;;5.60;;
49241;SDS011;35079;52.704;13.814;2023-09-08T15:15:06;9.45;;;5.10;;
49241;SDS011;35079;52.704;13.814;2023-09-08T15:17:32;11.05;;;5.38;;
49241;SDS011;35079;52.704;13.814;2023-09-08T15:19:59;8.82;;;5.30;;
49241;SDS011;35079;52.704;13.814;2023-09-08T15:22:25;8.23;;;4.78;;
49241;SDS011;35079;52.704;13.814;2023-09-08T15:24:51;5.93;;;4.93;;
49241;SDS011;35079;52.704;13.814;2023-09-08T15:27:16;7.07;;;5.57;;
49241;SDS011;35079;52.704;13.814;2023-09-08T15:29:42;7.65;;;5.10;;
49241;SDS011;35079;52.704;13.814;2023-09-08T15:32:08;9.80;;;5.78;;
49241;SDS011;35079;52.704;13.814;2023-09-08T15:34:33;11.48;;;5.75;;
49241;SDS011;35079;52.704;13.814;2023-09-08T15:36:59;7.45;;;5.25;;
49241;SDS011;35079;52.704;13.814;2023-09-08T15:39:25;9.90;;;4.90;;
49241;SDS011;35079;52.704;13.814;2023-09-08T15:41:51;8.68;;;5.18;;
49241;SDS011;35079;52.704;13.814;2023-09-08T15:44:16;5.90;;;5.00;;
49241;SDS011;35079;52.704;13.814;2023-09-08T15:46:42;16.13;;;5.47;;
49241;SDS011;35079;52.704;13.814;2023-09-08T15:49:07;11.20;;;5.13;;
49241;SDS011;35079;52.704;13.814;2023-09-08T15:51:33;8.00;;;5.43;;
49241;SDS011;35079;52.704;13.814;2023-09-08T15:53:59;8.98;;;5.20;;
49241;SDS011;35079;52.704;13.814;2023-09-08T15:56:24;9.05;;;5.15;;
49241;SDS011;35079;52.704;13.814;2023-09-08T15:58:50;8.82;;;5.40;;
49241;SDS011;35079;52.704;13.814;2023-09-08T16:01:15;7.82;;;5.72;;
49241;SDS011;35079;52.704;13.814;2023-09-08T16:03:41;10.77;;;5.05;;
49241;SDS011;35079;52.704;13.814;2023-09-08T16:06:07;9.85;;;5.18;;
49241;SDS011;35079;52.704;13.814;2023-09-08T16:08:37;10.55;;;5.70;;
49241;SDS011;35079;52.704;13.814;2023-09-08T16:11:03;6.07;;;4.97;;
49241;SDS011;35079;52.704;13.814;2023-09-08T16:13:31;7.00;;;5.00;;
49241;SDS011;35079;52.704;13.814;2023-09-08T16:15:57;6.88;;;5.38;;
49241;SDS011;35079;52.704;13.814;2023-09-08T16:18:22;13.73;;;5.68;;
49241;SDS011;35079;52.704;13.814;2023-09-08T16:20:49;9.23;;;5.63;;
49241;SDS011;35079;52.704;13.814;2023-09-08T16:23:15;8.48;;;5.88;;
49241;SDS011;35079;52.704;13.814;2023-09-08T16:25:40;14.07;;;5.75;;
49241;SDS011;35079;52.704;13.814;2023-09-08T16:28:06;12.98;;;5.65;;
49241;SDS011;35079;52.704;13.814;2023-09-08T16:30:32;11.88;;;5.72;;
49241;SDS011;35079;52.704;13.814;2023-09-08T16:32:57;9.48;;;5.35;;